Time;durP1;ratioP1;P1;durP2;ratioP2;P2;SDS_P1;SDS_P2;PMS_P1;PMS_P2;Temp;Humidity;BMP_temperature;BMP_pressure;BME280_temperature;BME280_humidity;BME280_pressure;Samples;Min_cycle;Max_cycle;Signal;HPM_P1;HPM_P2
2023/03/29 00:02:29;;;;;;;3.07;2.77;;;;;;;;;;5040329;28;20206;-90
2023/03/29 00:04:56;;;;;;;4.37;2.87;;;;;;;;;;5044609;28;20206;-90
2023/03/29 00:07:24;;;;;;;2.90;2.70;;;;;;;;;;5042805;28;20203;-90
2023/03/29 00:09:53;;;;;;;3.43;2.90;;;;;;;;;;5043545;28;20212;-89
2023/03/29 00:12:20;;;;;;;3.20;2.90;;;;;;;;;;5040373;28;20199;-90
2023/03/29 00:14:48;;;;;;;3.10;2.80;;;;;;;;;;5052495;28;20200;-88
2023/03/29 00:17:16;;;;;;;2.93;2.73;;;;;;;;;;5046439;28;20214;-90
2023/03/29 00:19:44;;;;;;;3.37;2.70;;;;;;;;;;5044858;28;20243;-89
2023/03/29 00:22:11;;;;;;;3.50;3.10;;;;;;;;;;5046905;28;20204;-89
2023/03/29 00:24:38;;;;;;;3.63;2.93;;;;;;;;;;5044387;28;20199;-89
2023/03/29 00:27:07;;;;;;;3.13;2.70;;;;;;;;;;5046045;28;20210;-89
2023/03/29 00:29:35;;;;;;;3.50;2.67;;;;;;;;;;5043813;28;20254;-90
2023/03/29 00:32:02;;;;;;;3.27;2.90;;;;;;;;;;5046095;28;20206;-89
2023/03/29 00:34:30;;;;;;;3.17;2.83;;;;;;;;;;5050560;28;20298;-90
2023/03/29 00:36:58;;;;;;;3.30;2.73;;;;;;;;;;5043285;28;20207;-89
2023/03/29 00:39:26;;;;;;;3.10;2.13;;;;;;;;;;5044701;28;20188;-89
2023/03/29 00:41:54;;;;;;;2.87;2.67;;;;;;;;;;5057216;28;20198;-89
2023/03/29 00:44:45;;;;;;;3.13;2.83;;;;;;;;;;5040725;28;20204;-90
2023/03/29 00:47:14;;;;;;;2.47;2.27;;;;;;;;;;5055790;28;20195;-89
2023/03/29 00:49:41;;;;;;;2.80;2.60;;;;;;;;;;5051223;28;20226;-88
2023/03/29 00:52:09;;;;;;;3.07;2.47;;;;;;;;;;5054211;28;20262;-89
2023/03/29 00:54:37;;;;;;;2.50;2.30;;;;;;;;;;5048292;28;20212;-89
2023/03/29 00:57:05;;;;;;;2.63;2.43;;;;;;;;;;5047896;28;20214;-88
2023/03/29 00:59:34;;;;;;;2.93;2.40;;;;;;;;;;5052193;28;20283;-89
2023/03/29 01:02:04;;;;;;;3.50;2.33;;;;;;;;;;5047975;28;20226;-89
2023/03/29 01:04:36;;;;;;;2.57;2.30;;;;;;;;;;5049433;28;20261;-89
2023/03/29 01:07:05;;;;;;;2.50;2.30;;;;;;;;;;5060186;28;20260;-89
2023/03/29 01:09:33;;;;;;;2.20;2.00;;;;;;;;;;5048051;28;20207;-88
2023/03/29 01:12:03;;;;;;;2.53;1.97;;;;;;;;;;5057004;28;20196;-89
2023/03/29 01:14:33;;;;;;;2.67;1.93;;;;;;;;;;5051374;28;20206;-90
2023/03/29 01:17:00;;;;;;;2.70;1.90;;;;;;;;;;5045541;28;20272;-90
2023/03/29 01:19:29;;;;;;;1.93;1.83;;;;;;;;;;5047288;28;20214;-89
2023/03/29 01:22:02;;;;;;;2.10;1.90;;;;;;;;;;5043566;28;20204;-88
2023/03/29 01:24:44;;;;;;;2.37;1.80;;;;;;;;;;5054422;28;20211;-90
2023/03/29 01:27:15;;;;;;;2.20;2.00;;;;;;;;;;5053822;28;20204;-89
2023/03/29 01:29:45;;;;;;;2.90;1.70;;;;;;;;;;5046722;28;20215;-90
2023/03/29 01:32:16;;;;;;;2.83;2.20;;;;;;;;;;5052544;28;20201;-89
2023/03/29 01:34:45;;;;;;;1.90;1.80;;;;;;;;;;5052342;28;20199;-90
2023/03/29 01:37:16;;;;;;;2.27;1.70;;;;;;;;;;5052697;28;20270;-89
2023/03/29 01:39:43;;;;;;;1.63;1.53;;;;;;;;;;5056363;28;20236;-90
2023/03/29 01:42:18;;;;;;;4.83;1.80;;;;;;;;;;5039132;28;20200;-88
2023/03/29 01:44:50;;;;;;;1.93;1.73;;;;;;;;;;5042055;28;20210;-89
2023/03/29 01:47:20;;;;;;;1.90;1.80;;;;;;;;;;5054021;28;20204;-90
2023/03/29 01:49:51;;;;;;;1.70;1.60;;;;;;;;;;5058922;28;20199;-89
2023/03/29 01:52:21;;;;;;;2.00;1.80;;;;;;;;;;5054469;28;20211;-88
2023/03/29 01:54:50;;;;;;;1.73;1.60;;;;;;;;;;5053354;28;20234;-90
2023/03/29 01:57:18;;;;;;;3.03;1.70;;;;;;;;;;5053317;28;20210;-90
2023/03/29 01:59:47;;;;;;;2.37;1.70;;;;;;;;;;5054965;28;20278;-89
2023/03/29 02:02:17;;;;;;;2.50;1.80;;;;;;;;;;5056108;28;20229;-90
2023/03/29 02:04:48;;;;;;;2.70;1.80;;;;;;;;;;5052384;28;20203;-90
2023/03/29 02:07:17;;;;;;;4.00;2.20;;;;;;;;;;5062278;28;20293;-89
2023/03/29 02:09:45;;;;;;;3.53;1.80;;;;;;;;;;5056022;28;20195;-87
2023/03/29 02:12:13;;;;;;;5.27;1.80;;;;;;;;;;5045734;28;20215;-89
2023/03/29 02:14:40;;;;;;;2.20;1.77;;;;;;;;;;5051490;28;20203;-89
2023/03/29 02:17:25;;;;;;;2.43;1.70;;;;;;;;;;5057968;28;20210;-89
2023/03/29 02:19:56;;;;;;;2.23;2.00;;;;;;;;;;5045523;28;20229;-89
2023/03/29 02:22:26;;;;;;;4.53;2.40;;;;;;;;;;5048361;28;20207;-89
2023/03/29 02:24:57;;;;;;;4.00;2.13;;;;;;;;;;5052043;28;20192;-89
2023/03/29 02:27:25;;;;;;;2.27;2.07;;;;;;;;;;5042812;28;20203;-89
2023/03/29 02:29:52;;;;;;;2.13;1.80;;;;;;;;;;5047218;28;20204;-88
2023/03/29 02:32:22;;;;;;;3.20;2.10;;;;;;;;;;5051564;28;20191;-88
2023/03/29 02:34:53;;;;;;;2.07;1.70;;;;;;;;;;5044795;28;20211;-89
2023/03/29 02:37:25;;;;;;;2.20;2.00;;;;;;;;;;5052427;28;20211;-89
2023/03/29 02:39:53;;;;;;;2.70;2.50;;;;;;;;;;5050965;28;20219;-89
2023/03/29 02:42:20;;;;;;;1.93;1.83;;;;;;;;;;5049329;28;20209;-89
2023/03/29 02:44:50;;;;;;;2.00;1.80;;;;;;;;;;5047699;28;20274;-89
2023/03/29 02:47:20;;;;;;;3.27;1.93;;;;;;;;;;5049224;28;20274;-89
2023/03/29 02:49:47;;;;;;;3.67;2.07;;;;;;;;;;5056671;28;20289;-89
2023/03/29 02:52:16;;;;;;;2.40;1.90;;;;;;;;;;5041942;28;20212;-89
2023/03/29 02:54:46;;;;;;;2.40;2.20;;;;;;;;;;5041279;28;20208;-88
2023/03/29 02:57:13;;;;;;;3.00;2.10;;;;;;;;;;5043909;28;20199;-89
2023/03/29 02:59:42;;;;;;;2.83;2.00;;;;;;;;;;5051678;28;20210;-88
2023/03/29 03:02:10;;;;;;;3.87;1.90;;;;;;;;;;5048656;28;20208;-89
2023/03/29 03:04:37;;;;;;;2.20;1.93;;;;;;;;;;5049537;28;20203;-89
2023/03/29 03:07:05;;;;;;;3.23;1.97;;;;;;;;;;5049433;28;20219;-89
2023/03/29 03:09:32;;;;;;;2.93;2.00;;;;;;;;;;5050436;28;20204;-89
2023/03/29 03:12:01;;;;;;;3.60;2.13;;;;;;;;;;5042930;28;20215;-88
2023/03/29 03:14:28;;;;;;;2.97;2.50;;;;;;;;;;5047588;28;20202;-89
2023/03/29 03:16:56;;;;;;;3.60;2.27;;;;;;;;;;5047886;28;20199;-89
2023/03/29 03:19:24;;;;;;;3.73;2.50;;;;;;;;;;5039230;28;20239;-88
2023/03/29 03:21:51;;;;;;;3.73;2.20;;;;;;;;;;5047161;28;20265;-89
2023/03/29 03:24:19;;;;;;;2.93;2.00;;;;;;;;;;5055459;28;20278;-89
2023/03/29 03:26:46;;;;;;;2.17;1.93;;;;;;;;;;5056022;28;20198;-89
2023/03/29 03:29:15;;;;;;;2.70;2.00;;;;;;;;;;5048469;28;20195;-89
2023/03/29 03:31:43;;;;;;;2.10;1.80;;;;;;;;;;5049186;28;20223;-89
2023/03/29 03:34:11;;;;;;;2.43;1.90;;;;;;;;;;5043860;28;20211;-87
2023/03/29 03:36:39;;;;;;;2.80;2.00;;;;;;;;;;5045195;28;20203;-89
2023/03/29 03:39:06;;;;;;;2.40;1.90;;;;;;;;;;5048281;28;20199;-89
2023/03/29 03:41:33;;;;;;;2.77;2.17;;;;;;;;;;5055908;28;20206;-89
2023/03/29 03:44:01;;;;;;;3.33;2.33;;;;;;;;;;5044423;28;20561;-89
2023/03/29 03:46:29;;;;;;;2.30;2.10;;;;;;;;;;5043665;28;20202;-89
2023/03/29 03:48:58;;;;;;;2.83;2.00;;;;;;;;;;5047579;28;20203;-89
2023/03/29 03:51:25;;;;;;;3.53;2.30;;;;;;;;;;5037205;28;20224;-88
2023/03/29 03:53:52;;;;;;;2.80;2.10;;;;;;;;;;5030010;28;20195;-89
2023/03/29 03:56:19;;;;;;;3.53;2.37;;;;;;;;;;5036574;28;20220;-89
2023/03/29 03:58:47;;;;;;;3.13;2.60;;;;;;;;;;5039096;28;20221;-89
2023/03/29 04:01:15;;;;;;;3.67;2.10;;;;;;;;;;5039536;28;20231;-88
2023/03/29 04:03:45;;;;;;;3.10;2.60;;;;;;;;;;5035064;28;20204;-89
2023/03/29 04:06:12;;;;;;;3.00;2.70;;;;;;;;;;5041704;28;20203;-88
2023/03/29 04:08:41;;;;;;;3.63;2.87;;;;;;;;;;5037775;28;20195;-88
2023/03/29 04:11:08;;;;;;;3.83;3.10;;;;;;;;;;5037540;28;20243;-89
2023/03/29 04:13:35;;;;;;;3.30;2.50;;;;;;;;;;5039055;28;20208;-90
2023/03/29 04:16:03;;;;;;;2.50;2.30;;;;;;;;;;5039961;28;20241;-89
2023/03/29 04:18:31;;;;;;;4.93;2.40;;;;;;;;;;5043390;28;20297;-89
2023/03/29 04:21:00;;;;;;;4.03;2.20;;;;;;;;;;5048417;28;20230;-89
2023/03/29 04:23:27;;;;;;;2.43;2.23;;;;;;;;;;5043278;28;20205;-89
2023/03/29 04:25:55;;;;;;;2.70;2.23;;;;;;;;;;5042886;28;20277;-88
2023/03/29 04:28:22;;;;;;;2.77;2.30;;;;;;;;;;5054871;28;20277;-89
2023/03/29 04:30:50;;;;;;;2.23;2.03;;;;;;;;;;5051929;28;20226;-88
2023/03/29 04:33:17;;;;;;;2.50;2.30;;;;;;;;;;5046176;28;20287;-89
2023/03/29 04:35:45;;;;;;;2.70;2.50;;;;;;;;;;5051979;28;20290;-89
2023/03/29 04:38:15;;;;;;;2.63;2.20;;;;;;;;;;5050127;28;20311;-89
2023/03/29 04:40:43;;;;;;;5.10;2.60;;;;;;;;;;5049958;28;20208;-89
2023/03/29 04:43:11;;;;;;;3.33;2.30;;;;;;;;;;5042969;28;20204;-89
2023/03/29 04:45:38;;;;;;;3.53;2.60;;;;;;;;;;5044170;28;20198;-89
2023/03/29 04:48:05;;;;;;;3.43;2.50;;;;;;;;;;5048912;28;20242;-90
2023/03/29 04:50:33;;;;;;;3.50;2.40;;;;;;;;;;5055213;28;20294;-88
2023/03/29 04:53:01;;;;;;;4.47;2.60;;;;;;;;;;5046500;28;20208;-89
2023/03/29 04:55:30;;;;;;;5.37;3.13;;;;;;;;;;5040677;28;20232;-88
2023/03/29 04:57:57;;;;;;;2.40;2.20;;;;;;;;;;5047489;28;20290;-88
2023/03/29 05:00:26;;;;;;;4.40;2.33;;;;;;;;;;5054782;28;20299;-88
2023/03/29 05:02:54;;;;;;;3.00;2.23;;;;;;;;;;5048132;28;20282;-88
2023/03/29 05:05:21;;;;;;;3.27;2.13;;;;;;;;;;5056392;28;20205;-90
2023/03/29 05:07:49;;;;;;;4.90;2.70;;;;;;;;;;5053121;28;20204;-89
2023/03/29 05:10:16;;;;;;;3.97;2.20;;;;;;;;;;5047920;28;20298;-90
2023/03/29 05:12:45;;;;;;;2.67;2.30;;;;;;;;;;5050662;28;20208;-89
2023/03/29 05:15:13;;;;;;;2.60;2.20;;;;;;;;;;5042400;28;20202;-89
2023/03/29 05:17:41;;;;;;;3.10;2.20;;;;;;;;;;5046411;28;20276;-89
2023/03/29 05:20:10;;;;;;;2.40;2.20;;;;;;;;;;5046399;28;20293;-88
2023/03/29 05:22:39;;;;;;;2.93;2.60;;;;;;;;;;5050161;28;20211;-88
2023/03/29 05:25:07;;;;;;;4.63;2.50;;;;;;;;;;5049660;28;20280;-91
2023/03/29 05:27:34;;;;;;;3.03;2.30;;;;;;;;;;5047734;28;20266;-89
2023/03/29 05:30:03;;;;;;;3.27;2.37;;;;;;;;;;5044362;28;20203;-89
2023/03/29 05:32:31;;;;;;;6.73;2.87;;;;;;;;;;5046393;28;20312;-90
2023/03/29 05:34:58;;;;;;;3.60;2.37;;;;;;;;;;5048946;28;20210;-90
2023/03/29 05:37:25;;;;;;;3.83;2.73;;;;;;;;;;5049700;28;20203;-89
2023/03/29 05:39:53;;;;;;;3.23;2.80;;;;;;;;;;5054355;28;20207;-89
2023/03/29 05:42:22;;;;;;;2.93;2.70;;;;;;;;;;5040616;28;20208;-90
2023/03/29 05:44:49;;;;;;;4.33;2.60;;;;;;;;;;5040802;28;20209;-90
2023/03/29 05:47:18;;;;;;;3.87;2.70;;;;;;;;;;5051682;28;20208;-89
2023/03/29 05:49:46;;;;;;;5.30;2.57;;;;;;;;;;5055367;28;20207;-90
2023/03/29 05:52:14;;;;;;;3.43;2.90;;;;;;;;;;5047432;28;20256;-90
2023/03/29 05:54:41;;;;;;;2.93;2.63;;;;;;;;;;5052852;28;20196;-89
2023/03/29 05:57:08;;;;;;;4.77;2.60;;;;;;;;;;5046957;28;20230;-90
2023/03/29 05:59:37;;;;;;;3.50;2.33;;;;;;;;;;5048692;28;20208;-88
2023/03/29 06:02:04;;;;;;;4.90;2.30;;;;;;;;;;5054166;28;20219;-89
2023/03/29 06:04:35;;;;;;;2.47;2.07;;;;;;;;;;5043042;28;20291;-90
2023/03/29 06:07:03;;;;;;;2.73;2.40;;;;;;;;;;5045499;28;20204;-90
2023/03/29 06:09:32;;;;;;;2.40;2.20;;;;;;;;;;5054567;28;20212;-90
2023/03/29 06:12:00;;;;;;;2.77;2.30;;;;;;;;;;5048970;28;20223;-89
2023/03/29 06:14:28;;;;;;;3.57;2.40;;;;;;;;;;5043676;28;20199;-90
2023/03/29 06:16:55;;;;;;;3.20;2.43;;;;;;;;;;5050414;28;20307;-90
2023/03/29 06:19:23;;;;;;;4.23;2.23;;;;;;;;;;5045249;28;20212;-90
2023/03/29 06:21:53;;;;;;;3.80;2.20;;;;;;;;;;5014669;28;20197;-90
2023/03/29 06:24:20;;;;;;;2.50;2.27;;;;;;;;;;5006061;28;20211;-90
2023/03/29 06:26:49;;;;;;;6.40;2.40;;;;;;;;;;5025436;28;20254;-90
2023/03/29 06:29:21;;;;;;;2.80;2.40;;;;;;;;;;5004641;28;20196;-90
2023/03/29 06:31:52;;;;;;;4.20;2.30;;;;;;;;;;5000059;28;20225;-90
2023/03/29 06:34:21;;;;;;;5.37;2.60;;;;;;;;;;5010650;28;20205;-90
2023/03/29 06:36:53;;;;;;;3.40;2.30;;;;;;;;;;4999609;28;20219;-89
2023/03/29 06:39:25;;;;;;;2.30;1.83;;;;;;;;;;4996640;28;20201;-90
2023/03/29 06:41:54;;;;;;;3.20;2.07;;;;;;;;;;5004008;28;20287;-89
2023/03/29 06:44:24;;;;;;;2.30;2.10;;;;;;;;;;5012394;28;20213;-91
2023/03/29 06:46:51;;;;;;;3.77;2.20;;;;;;;;;;5000592;28;20254;-90
2023/03/29 06:49:20;;;;;;;4.97;2.40;;;;;;;;;;5026843;28;20204;-90
2023/03/29 06:51:48;;;;;;;4.63;2.50;;;;;;;;;;5011620;28;20236;-90
2023/03/29 06:54:15;;;;;;;2.73;2.23;;;;;;;;;;5003700;28;20251;-91
2023/03/29 06:56:46;;;;;;;4.27;2.50;;;;;;;;;;5012019;28;20214;-91
2023/03/29 06:59:13;;;;;;;3.07;2.10;;;;;;;;;;5015111;28;20258;-90
2023/03/29 07:01:43;;;;;;;2.93;2.27;;;;;;;;;;5014341;28;20205;-90
2023/03/29 07:04:11;;;;;;;3.07;2.10;;;;;;;;;;5009505;28;20287;-91
2023/03/29 07:06:39;;;;;;;2.90;2.00;;;;;;;;;;5004365;28;20208;-90
2023/03/29 07:09:07;;;;;;;2.43;2.10;;;;;;;;;;5011180;28;20242;-91
2023/03/29 07:11:35;;;;;;;4.77;2.20;;;;;;;;;;5003972;28;20243;-90
2023/03/29 07:14:05;;;;;;;3.13;1.90;;;;;;;;;;5026958;28;20213;-90
2023/03/29 07:16:35;;;;;;;3.60;2.00;;;;;;;;;;5010183;28;20213;-91
2023/03/29 07:19:03;;;;;;;3.33;2.30;;;;;;;;;;5004063;28;20193;-91
2023/03/29 07:21:31;;;;;;;4.30;2.30;;;;;;;;;;5044439;28;20231;-91
2023/03/29 07:23:59;;;;;;;4.87;2.33;;;;;;;;;;5041726;28;20207;-90
2023/03/29 07:26:27;;;;;;;5.13;2.33;;;;;;;;;;5051868;28;20303;-91
2023/03/29 07:28:55;;;;;;;4.43;2.50;;;;;;;;;;5048628;28;20203;-90
2023/03/29 07:31:24;;;;;;;4.00;2.50;;;;;;;;;;5049359;28;20230;-91
2023/03/29 07:33:52;;;;;;;3.33;2.07;;;;;;;;;;5044905;28;20265;-91
2023/03/29 07:36:20;;;;;;;6.50;2.20;;;;;;;;;;5049650;28;20199;-91
2023/03/29 07:38:48;;;;;;;4.13;2.10;;;;;;;;;;5049589;28;20212;-90
2023/03/29 07:41:16;;;;;;;2.77;2.00;;;;;;;;;;5036626;28;20237;-92
2023/03/29 07:43:44;;;;;;;3.37;2.40;;;;;;;;;;5053595;28;20211;-91
2023/03/29 07:46:12;;;;;;;6.13;2.27;;;;;;;;;;5049079;28;20275;-91
2023/03/29 07:48:42;;;;;;;1.93;1.70;;;;;;;;;;5043419;28;20263;-90
2023/03/29 07:51:10;;;;;;;2.37;2.10;;;;;;;;;;5052868;28;20301;-92
2023/03/29 07:53:37;;;;;;;2.20;2.00;;;;;;;;;;5047116;28;20306;-91
2023/03/29 07:56:05;;;;;;;5.07;2.40;;;;;;;;;;5049130;28;20212;-91
2023/03/29 07:58:32;;;;;;;3.50;2.30;;;;;;;;;;5047189;28;20254;-90
2023/03/29 08:01:00;;;;;;;5.57;2.17;;;;;;;;;;5044742;28;20203;-89
2023/03/29 08:03:28;;;;;;;7.80;2.07;;;;;;;;;;5042413;28;20236;-90
2023/03/29 08:05:57;;;;;;;2.63;2.30;;;;;;;;;;5043515;28;20207;-90
2023/03/29 08:08:24;;;;;;;5.27;2.70;;;;;;;;;;5051997;28;20203;-91
2023/03/29 08:10:52;;;;;;;3.93;2.20;;;;;;;;;;5035394;28;20220;-91
2023/03/29 08:13:19;;;;;;;3.37;2.27;;;;;;;;;;5038334;28;20249;-91
2023/03/29 08:15:47;;;;;;;3.70;2.03;;;;;;;;;;5050004;28;20221;-92
2023/03/29 08:18:15;;;;;;;4.00;2.23;;;;;;;;;;5046190;28;20200;-90
2023/03/29 08:20:42;;;;;;;3.53;2.07;;;;;;;;;;5048823;28;20228;-91
2023/03/29 08:23:14;;;;;;;2.30;2.10;;;;;;;;;;5041408;28;20204;-91
2023/03/29 08:25:42;;;;;;;2.37;2.10;;;;;;;;;;5045276;28;20212;-91
2023/03/29 08:28:10;;;;;;;3.07;2.60;;;;;;;;;;5041240;28;20247;-90
2023/03/29 08:30:38;;;;;;;2.77;2.37;;;;;;;;;;5046948;28;20203;-92
2023/03/29 08:33:10;;;;;;;4.93;2.57;;;;;;;;;;5050022;28;20245;-91
2023/03/29 08:35:48;;;;;;;2.60;2.40;;;;;;;;;;5035248;28;20212;-92
2023/03/29 08:38:18;;;;;;;3.50;2.30;;;;;;;;;;5043970;28;20215;-90
2023/03/29 08:40:49;;;;;;;3.43;2.70;;;;;;;;;;5033449;28;20208;-92
2023/03/29 08:43:27;;;;;;;4.67;2.50;;;;;;;;;;5048134;28;20333;-90
2023/03/29 08:46:00;;;;;;;3.93;2.67;;;;;;;;;;5039907;28;20256;-90
2023/03/29 08:48:29;;;;;;;2.40;2.20;;;;;;;;;;5041714;28;20291;-90
2023/03/29 08:50:59;;;;;;;3.60;2.90;;;;;;;;;;5041741;28;20226;-89
2023/03/29 08:53:30;;;;;;;3.77;2.67;;;;;;;;;;5052916;28;20229;-91
2023/03/29 08:55:59;;;;;;;3.23;2.60;;;;;;;;;;5047869;28;20218;-92
2023/03/29 08:58:29;;;;;;;2.93;2.40;;;;;;;;;;5046851;28;20200;-91
2023/03/29 09:00:58;;;;;;;4.33;2.37;;;;;;;;;;5042810;28;20317;-91
2023/03/29 09:03:27;;;;;;;4.37;2.63;;;;;;;;;;5050960;28;20290;-92
2023/03/29 09:05:56;;;;;;;2.60;2.40;;;;;;;;;;5045153;28;20199;-91
2023/03/29 09:08:24;;;;;;;4.10;2.23;;;;;;;;;;5052268;28;20266;-91
2023/03/29 09:11:04;;;;;;;2.97;2.20;;;;;;;;;;5046216;28;20286;-91
2023/03/29 09:13:35;;;;;;;5.67;2.83;;;;;;;;;;5043635;28;20230;-91
2023/03/29 09:16:07;;;;;;;3.00;2.40;;;;;;;;;;5054267;28;20203;-90
2023/03/29 09:18:39;;;;;;;2.97;2.47;;;;;;;;;;5042729;28;20330;-91
2023/03/29 09:21:10;;;;;;;4.17;2.10;;;;;;;;;;5050610;28;20235;-92
2023/03/29 09:24:02;;;;;;;3.87;2.20;;;;;;;;;;5044621;28;20262;-92
2023/03/29 09:26:35;;;;;;;4.53;2.50;;;;;;;;;;5060005;28;20222;-90
2023/03/29 09:29:07;;;;;;;4.43;2.50;;;;;;;;;;5046950;28;20258;-91
2023/03/29 09:31:37;;;;;;;3.60;2.60;;;;;;;;;;5037312;28;20208;-91
2023/03/29 09:34:07;;;;;;;3.50;2.70;;;;;;;;;;5047200;28;20234;-92
2023/03/29 09:36:41;;;;;;;5.43;2.90;;;;;;;;;;5056711;28;20211;-93
2023/03/29 09:39:09;;;;;;;7.03;5.37;;;;;;;;;;5043006;28;20291;-91
2023/03/29 09:41:40;;;;;;;4.10;2.43;;;;;;;;;;5043588;28;20264;-92
2023/03/29 09:44:09;;;;;;;3.33;2.53;;;;;;;;;;5052927;28;20216;-92
2023/03/29 09:46:39;;;;;;;3.27;2.27;;;;;;;;;;5044703;28;20262;-92
2023/03/29 09:49:09;;;;;;;2.50;2.30;;;;;;;;;;5043137;28;20200;-91
2023/03/29 09:51:36;;;;;;;2.93;2.40;;;;;;;;;;5045742;28;20242;-92
2023/03/29 09:54:03;;;;;;;2.87;2.10;;;;;;;;;;5045285;28;20231;-90
2023/03/29 09:56:31;;;;;;;3.13;2.20;;;;;;;;;;5048079;28;20205;-91
2023/03/29 09:59:00;;;;;;;3.43;2.33;;;;;;;;;;5053767;28;20230;-92
2023/03/29 10:01:36;;;;;;;2.07;1.87;;;;;;;;;;5047828;28;20239;-92
2023/03/29 10:04:03;;;;;;;4.17;2.27;;;;;;;;;;5045510;28;20203;-92
2023/03/29 10:06:34;;;;;;;6.67;2.47;;;;;;;;;;5054338;28;20194;-92
2023/03/29 10:09:02;;;;;;;3.43;2.50;;;;;;;;;;5053623;28;20223;-92
2023/03/29 10:11:30;;;;;;;4.23;2.67;;;;;;;;;;5053505;28;20203;-92
2023/03/29 10:14:01;;;;;;;3.77;2.47;;;;;;;;;;5050993;28;20234;-92
2023/03/29 10:16:34;;;;;;;3.63;2.50;;;;;;;;;;5055215;28;20214;-92
2023/03/29 10:19:08;;;;;;;3.23;2.50;;;;;;;;;;5045892;28;20208;-90
2023/03/29 10:21:35;;;;;;;4.30;2.53;;;;;;;;;;5050973;28;20224;-92
2023/03/29 10:24:02;;;;;;;2.60;2.40;;;;;;;;;;5054888;28;20208;-92
2023/03/29 10:26:31;;;;;;;5.37;2.70;;;;;;;;;;5046571;28;20204;-92
2023/03/29 10:29:00;;;;;;;3.70;2.50;;;;;;;;;;5040682;28;20204;-91
2023/03/29 10:31:31;;;;;;;4.13;2.83;;;;;;;;;;5047686;28;20269;-91
2023/03/29 10:34:02;;;;;;;3.47;2.80;;;;;;;;;;5045956;28;20234;-91
2023/03/29 10:36:30;;;;;;;4.10;2.50;;;;;;;;;;5045911;28;20191;-91
2023/03/29 10:38:58;;;;;;;2.97;2.40;;;;;;;;;;5052808;28;20209;-92
2023/03/29 10:41:28;;;;;;;3.65;2.70;;;;;;;;;;5045664;28;20204;-92
2023/03/29 10:43:57;;;;;;;5.15;2.65;;;;;;;;;;5050584;28;20231;-91
2023/03/29 10:46:28;;;;;;;3.65;2.38;;;;;;;;;;5045176;28;20210;-92
2023/03/29 10:48:57;;;;;;;2.97;2.40;;;;;;;;;;5046027;28;20208;-90
2023/03/29 10:51:28;;;;;;;3.78;2.72;;;;;;;;;;5039260;28;20203;-92
2023/03/29 10:53:57;;;;;;;2.85;2.60;;;;;;;;;;5045894;28;20228;-92
2023/03/29 10:56:34;;;;;;;4.82;3.08;;;;;;;;;;5041245;28;20326;-91
2023/03/29 10:59:17;;;;;;;3.90;2.80;;;;;;;;;;5043234;28;20215;-90
2023/03/29 11:01:49;;;;;;;5.05;2.80;;;;;;;;;;5046503;28;20284;-90
2023/03/29 11:04:21;;;;;;;5.15;3.10;;;;;;;;;;5046240;28;20207;-91
2023/03/29 11:06:55;;;;;;;4.53;3.00;;;;;;;;;;5046649;28;20211;-90
2023/03/29 11:09:27;;;;;;;4.00;2.72;;;;;;;;;;5044641;28;20230;-91
2023/03/29 11:12:00;;;;;;;3.50;2.53;;;;;;;;;;5047607;28;20195;-90
2023/03/29 11:14:30;;;;;;;4.60;2.80;;;;;;;;;;5045247;28;20271;-90
2023/03/29 11:17:02;;;;;;;5.95;3.10;;;;;;;;;;5048871;28;20202;-91
2023/03/29 11:19:50;;;;;;;4.35;2.80;;;;;;;;;;5051065;28;20195;-90
2023/03/29 11:22:21;;;;;;;3.85;2.92;;;;;;;;;;5045467;28;20204;-88
2023/03/29 11:24:55;;;;;;;6.03;3.20;;;;;;;;;;5049948;28;20286;-89
2023/03/29 11:27:29;;;;;;;4.80;2.97;;;;;;;;;;5049126;28;20204;-90
2023/03/29 11:30:01;;;;;;;3.15;2.85;;;;;;;;;;5036613;28;20267;-89
2023/03/29 11:32:33;;;;;;;5.15;3.20;;;;;;;;;;5048022;28;20213;-90
2023/03/29 11:35:06;;;;;;;3.55;3.25;;;;;;;;;;5043238;28;20226;-89
2023/03/29 11:37:37;;;;;;;6.38;3.38;;;;;;;;;;5044591;28;20195;-89
2023/03/29 11:40:12;;;;;;;7.13;2.88;;;;;;;;;;5046999;28;20218;-89
2023/03/29 11:42:42;;;;;;;5.10;3.38;;;;;;;;;;5046860;28;20230;-90
2023/03/29 11:45:13;;;;;;;5.40;3.15;;;;;;;;;;5044366;28;20212;-90
2023/03/29 11:47:43;;;;;;;4.93;2.85;;;;;;;;;;5041661;28;20218;-89
2023/03/29 11:50:15;;;;;;;3.88;2.70;;;;;;;;;;5050902;28;20215;-90
2023/03/29 11:52:47;;;;;;;3.95;2.85;;;;;;;;;;5042623;28;20259;-90
2023/03/29 11:55:16;;;;;;;5.25;2.97;;;;;;;;;;5043068;28;20223;-90
2023/03/29 11:57:45;;;;;;;6.90;3.22;;;;;;;;;;5049373;28;20187;-90
2023/03/29 12:00:14;;;;;;;3.75;2.83;;;;;;;;;;5050449;28;20290;-90
2023/03/29 12:02:43;;;;;;;6.95;2.83;;;;;;;;;;5047974;28;20191;-90
2023/03/29 12:05:13;;;;;;;3.08;2.75;;;;;;;;;;5034985;28;20201;-88
2023/03/29 12:07:45;;;;;;;3.45;2.72;;;;;;;;;;5046168;28;20215;-90
2023/03/29 12:10:17;;;;;;;4.25;2.70;;;;;;;;;;5042644;28;20200;-91
2023/03/29 12:12:46;;;;;;;4.40;2.15;;;;;;;;;;5049208;28;20199;-89
2023/03/29 12:15:18;;;;;;;2.90;2.40;;;;;;;;;;5049504;28;20233;-90
2023/03/29 12:17:49;;;;;;;4.68;2.22;;;;;;;;;;5049987;28;20286;-91
2023/03/29 12:20:22;;;;;;;3.13;2.20;;;;;;;;;;5046513;28;20262;-90
2023/03/29 12:22:49;;;;;;;3.75;2.13;;;;;;;;;;5047248;28;20237;-90
2023/03/29 12:25:20;;;;;;;3.00;2.67;;;;;;;;;;5051971;28;20207;-92
2023/03/29 12:27:54;;;;;;;3.65;2.30;;;;;;;;;;5053172;28;20217;-91
2023/03/29 12:30:30;;;;;;;2.70;2.00;;;;;;;;;;5044151;28;20214;-92
2023/03/29 12:33:18;;;;;;;4.45;2.28;;;;;;;;;;5040814;28;20229;-92
2023/03/29 12:35:51;;;;;;;3.10;2.00;;;;;;;;;;5043202;28;20196;-91
2023/03/29 12:38:21;;;;;;;4.18;1.80;;;;;;;;;;5051825;28;20301;-91
2023/03/29 12:40:54;;;;;;;2.85;2.10;;;;;;;;;;5043971;28;20215;-92
2023/03/29 12:43:25;;;;;;;2.40;2.00;;;;;;;;;;5041295;28;20196;-92
2023/03/29 12:45:53;;;;;;;3.85;2.10;;;;;;;;;;5042852;28;20200;-91
2023/03/29 12:48:22;;;;;;;2.88;1.92;;;;;;;;;;5044119;28;20238;-91
2023/03/29 12:50:51;;;;;;;2.50;2.17;;;;;;;;;;5044798;28;20210;-91
2023/03/29 12:53:22;;;;;;;4.38;1.83;;;;;;;;;;5053579;28;20279;-91
2023/03/29 12:55:54;;;;;;;3.35;2.08;;;;;;;;;;5041915;28;20215;-91
2023/03/29 12:58:36;;;;;;;4.30;2.40;;;;;;;;;;5046875;28;20223;-91
2023/03/29 13:01:08;;;;;;;3.40;2.00;;;;;;;;;;5043387;28;20338;-92
2023/03/29 13:03:41;;;;;;;3.72;2.67;;;;;;;;;;5056275;28;20199;-92
2023/03/29 13:06:09;;;;;;;3.30;2.20;;;;;;;;;;5051824;28;20222;-91
2023/03/29 13:08:37;;;;;;;5.32;2.63;;;;;;;;;;5052616;28;20270;-91
2023/03/29 13:11:08;;;;;;;3.88;2.10;;;;;;;;;;5048282;28;20230;-91
2023/03/29 13:13:36;;;;;;;5.35;2.65;;;;;;;;;;5050624;28;20231;-92
2023/03/29 13:16:12;;;;;;;3.95;2.25;;;;;;;;;;5051409;28;20197;-91
2023/03/29 13:18:49;;;;;;;3.38;2.35;;;;;;;;;;5042136;28;20196;-92
2023/03/29 13:21:20;;;;;;;3.70;2.40;;;;;;;;;;5043217;28;20239;-91
2023/03/29 13:23:54;;;;;;;3.50;2.70;;;;;;;;;;5045422;28;20283;-92
2023/03/29 13:26:38;;;;;;;4.50;2.15;;;;;;;;;;5049242;28;20206;-91
2023/03/29 13:29:26;;;;;;;4.15;2.33;;;;;;;;;;5054755;28;20212;-90
2023/03/29 13:31:56;;;;;;;4.10;2.28;;;;;;;;;;5039101;28;20209;-91
2023/03/29 13:34:30;;;;;;;3.80;2.40;;;;;;;;;;5044111;28;20212;-92
2023/03/29 13:37:02;;;;;;;2.63;2.30;;;;;;;;;;5044723;28;20195;-91
2023/03/29 13:39:31;;;;;;;2.92;1.98;;;;;;;;;;5043777;28;20208;-91
2023/03/29 13:42:08;;;;;;;4.25;2.60;;;;;;;;;;5048948;28;20204;-91
2023/03/29 13:44:43;;;;;;;4.35;2.40;;;;;;;;;;5049419;28;20211;-91
2023/03/29 13:47:16;;;;;;;4.38;2.03;;;;;;;;;;5049111;28;20206;-92
2023/03/29 13:49:45;;;;;;;4.05;2.35;;;;;;;;;;5054967;28;20257;-92
2023/03/29 13:52:15;;;;;;;2.55;2.13;;;;;;;;;;5042747;28;20243;-91
2023/03/29 13:54:44;;;;;;;3.35;2.40;;;;;;;;;;5051119;28;20300;-91
2023/03/29 13:57:16;;;;;;;4.70;3.33;;;;;;;;;;5048661;28;20200;-92
2023/03/29 13:59:48;;;;;;;2.92;2.30;;;;;;;;;;5040478;28;20232;-91
2023/03/29 14:02:19;;;;;;;4.45;2.20;;;;;;;;;;5038362;28;20203;-91
2023/03/29 14:04:48;;;;;;;3.90;2.00;;;;;;;;;;5047330;28;20215;-92
2023/03/29 14:07:15;;;;;;;3.45;2.22;;;;;;;;;;5053707;28;20196;-92
2023/03/29 14:09:45;;;;;;;3.88;2.25;;;;;;;;;;5059662;28;20215;-92
2023/03/29 14:12:15;;;;;;;4.03;2.17;;;;;;;;;;5040931;28;20214;-92
2023/03/29 14:14:44;;;;;;;3.33;2.20;;;;;;;;;;5059416;28;20214;-92
2023/03/29 14:17:15;;;;;;;3.17;2.08;;;;;;;;;;5054023;28;20224;-91
2023/03/29 14:19:43;;;;;;;4.50;2.53;;;;;;;;;;5043188;28;20204;-92
2023/03/29 14:22:13;;;;;;;2.63;2.10;;;;;;;;;;5039939;28;20206;-93
2023/03/29 14:24:46;;;;;;;4.07;2.40;;;;;;;;;;5052060;28;20204;-91
2023/03/29 14:27:16;;;;;;;5.65;1.80;;;;;;;;;;5041348;28;20215;-92
2023/03/29 14:29:46;;;;;;;4.18;2.10;;;;;;;;;;5035913;28;20316;-92
2023/03/29 14:32:15;;;;;;;2.75;2.30;;;;;;;;;;5050688;28;20274;-92
2023/03/29 14:34:42;;;;;;;6.32;2.00;;;;;;;;;;5046005;28;20252;-92
2023/03/29 14:37:11;;;;;;;2.88;1.90;;;;;;;;;;5044839;28;20212;-92
2023/03/29 14:39:40;;;;;;;2.42;1.95;;;;;;;;;;5046918;28;20241;-91
2023/03/29 14:42:11;;;;;;;2.17;1.73;;;;;;;;;;5033318;28;20208;-91
2023/03/29 14:44:40;;;;;;;3.78;2.70;;;;;;;;;;5040062;28;20204;-92
2023/03/29 14:47:07;;;;;;;3.08;2.17;;;;;;;;;;5053068;28;20207;-92
2023/03/29 14:49:35;;;;;;;3.00;2.10;;;;;;;;;;5046867;28;20219;-92
2023/03/29 14:52:02;;;;;;;2.80;1.70;;;;;;;;;;5034793;28;20214;-92
2023/03/29 14:54:31;;;;;;;2.33;1.98;;;;;;;;;;5049813;28;20293;-91
2023/03/29 14:56:58;;;;;;;2.58;1.80;;;;;;;;;;5048214;28;20281;-92
2023/03/29 14:59:28;;;;;;;2.85;2.10;;;;;;;;;;5040295;28;20218;-91